Monitor — WCX9104 — position and weather

sailwx.info

Track history (hours):
 
Tides and Currents Weather Stations Pressure Air Temp Water Temp Dewpoint Dewpoint Depression Visibility Wind Speed Wind Dir Waves Ship Positions

Monitor

Owner: CROWLEY PUERTO RICO SERVICES INC, Seattle, WA. More information available from US FCC via Universal Licensing System and Coast Guard Vessel Documentation Center.

Last reported at 2017-Sep-14 19:20 UTC. Time now 2017-Sep-21 01:45 UTC.
Position N 25°35' W 079°60'.

Length 40 m; draft 5.8 m.

Type: Towing. MMSI: 366766920.

Date/timePositionNaut miles runAvg speedWind from/ knotsBaromVisibWave heightAir tempDewpointWater temp
2017-Sep-14 19:20N 25°35' W 079°60'3 7.9
2017-Sep-14 19:00N 25°38' W 079°60'4 7.7
2017-Sep-14 18:31N 25°42' W 079°59'4 7.6
2017-Sep-14 18:01N 25°45' W 079°58'4 7.6
2017-Sep-14 17:31N 25°49' W 079°59'4 7.6
2017-Sep-14 17:01N 25°53' W 079°59'4 7.4
2017-Sep-14 16:30N 25°57' W 079°58'58 8.0
2017-Sep-14 09:14N 26°55' W 079°57'2 7.8
2017-Sep-14 09:01N 26°56' W 079°57'4 7.6
2017-Sep-14 08:31N 27°00' W 079°58'  
Track history (hours):
 
Tides and Currents Weather Stations Pressure Air Temp Water Temp Dewpoint Dewpoint Depression Visibility Wind Speed Wind Dir Waves Ship Positions

Monitor

Owner: CROWLEY PUERTO RICO SERVICES INC, Seattle, WA. More information available from US FCC via Universal Licensing System and Coast Guard Vessel Documentation Center.

Last reported at 2017-Sep-14 19:20 UTC. Time now 2017-Sep-21 01:45 UTC.
Position N 25°35' W 079°60'.

Length 40 m; draft 5.8 m.

Type: Towing. MMSI: 366766920.

Date/timePositionNaut miles runAvg speedWind from/ knotsBaromVisibWave heightAir tempDewpointWater temp
2017-Sep-14 19:20N 25°35' W 079°60'3 7.9
2017-Sep-14 19:00N 25°38' W 079°60'4 7.7
2017-Sep-14 18:31N 25°42' W 079°59'4 7.6
2017-Sep-14 18:01N 25°45' W 079°58'4 7.6
2017-Sep-14 17:31N 25°49' W 079°59'4 7.6
2017-Sep-14 17:01N 25°53' W 079°59'4 7.4
2017-Sep-14 16:30N 25°57' W 079°58'58 8.0
2017-Sep-14 09:14N 26°55' W 079°57'2 7.8
2017-Sep-14 09:01N 26°56' W 079°57'4 7.6
2017-Sep-14 08:31N 27°00' W 079°58'  

Dump ship's entire track history